createdAt,value
2018-11-14T00:02:00.083Z,99.90
2018-11-14T00:04:34.953Z,99.90
2018-11-14T00:07:03.102Z,99.90
2018-11-14T00:09:31.272Z,99.90
2018-11-14T00:11:59.400Z,99.90
2018-11-14T00:14:27.546Z,99.90
2018-11-14T00:16:55.719Z,99.90
2018-11-14T00:19:23.977Z,99.90
2018-11-14T00:21:52.110Z,99.90
2018-11-14T00:24:20.288Z,99.90
2018-11-14T00:26:48.525Z,99.90
2018-11-14T00:29:16.658Z,99.90
2018-11-14T00:31:44.745Z,99.90
2018-11-14T00:34:12.939Z,99.90
2018-11-14T00:36:41.075Z,99.90
2018-11-14T00:39:10.423Z,99.90
2018-11-14T00:41:38.575Z,99.90
2018-11-14T00:44:06.728Z,99.90
2018-11-14T00:46:34.861Z,99.90
2018-11-14T00:49:03.026Z,99.90
2018-11-14T00:51:31.385Z,99.90
2018-11-14T00:53:59.608Z,99.90
2018-11-14T00:56:27.790Z,99.90
2018-11-14T00:58:56.212Z,99.90
2018-11-14T01:01:24.686Z,99.90
2018-11-14T01:03:52.808Z,99.90
2018-11-14T01:06:20.963Z,99.90
2018-11-14T01:08:49.089Z,99.90
2018-11-14T01:11:17.210Z,99.90
2018-11-14T01:13:45.370Z,99.90
2018-11-14T01:16:13.510Z,99.90
2018-11-14T01:18:41.647Z,99.90
2018-11-14T01:21:09.776Z,99.90
2018-11-14T01:23:37.905Z,99.90
2018-11-14T01:26:06.036Z,99.90
2018-11-14T01:28:34.171Z,99.90
2018-11-14T01:31:02.329Z,99.90
2018-11-14T01:33:30.479Z,99.90
2018-11-14T01:35:58.849Z,99.90
2018-11-14T01:38:26.797Z,99.90
2018-11-14T01:40:54.951Z,99.90
2018-11-14T01:43:23.109Z,99.90
2018-11-14T01:45:51.254Z,99.90
2018-11-14T01:48:19.397Z,99.90
2018-11-14T01:50:47.543Z,99.90
2018-11-14T01:53:15.701Z,99.90
2018-11-14T01:55:43.866Z,99.90
2018-11-14T01:58:12.051Z,99.90
2018-11-14T02:00:40.243Z,99.90
2018-11-14T02:03:08.390Z,99.90
2018-11-14T02:05:36.525Z,99.90
2018-11-14T02:08:05.049Z,99.90
2018-11-14T02:10:33.202Z,99.90
2018-11-14T02:13:01.349Z,99.90
2018-11-14T02:15:29.491Z,99.90
2018-11-14T02:17:57.661Z,99.90
2018-11-14T02:20:25.798Z,99.90
2018-11-14T02:22:53.962Z,99.90
2018-11-14T02:25:22.240Z,99.90
2018-11-14T02:27:50.418Z,99.90
2018-11-14T02:30:20.292Z,99.90
2018-11-14T02:32:48.438Z,99.90
2018-11-14T02:35:16.615Z,99.90
2018-11-14T02:37:45.329Z,99.90
2018-11-14T02:40:14.840Z,99.90
2018-11-14T02:42:43.068Z,99.90
2018-11-14T02:45:11.712Z,99.90
2018-11-14T02:47:39.882Z,99.90
2018-11-14T02:50:09.633Z,99.90
2018-11-14T02:52:37.807Z,99.90
2018-11-14T02:55:07.115Z,99.90
2018-11-14T02:57:35.383Z,99.90
2018-11-14T03:00:03.646Z,99.90
2018-11-14T03:02:31.782Z,99.90
2018-11-14T03:05:00.045Z,99.90
2018-11-14T03:07:28.206Z,99.90
2018-11-14T03:09:56.366Z,99.90
2018-11-14T03:12:24.650Z,99.90
2018-11-14T03:14:52.863Z,99.90
2018-11-14T03:17:21.067Z,99.90
2018-11-14T03:19:49.218Z,99.90
2018-11-14T03:22:17.460Z,99.90
2018-11-14T03:24:45.582Z,99.90
2018-11-14T03:27:13.747Z,99.90
2018-11-14T03:29:41.900Z,99.90
2018-11-14T03:32:10.079Z,99.90
2018-11-14T03:34:38.247Z,99.90
2018-11-14T03:37:06.514Z,99.90
2018-11-14T03:39:34.694Z,99.90
2018-11-14T03:42:02.854Z,99.90
2018-11-14T03:44:31.044Z,99.90
2018-11-14T03:46:59.205Z,99.90
2018-11-14T03:49:27.378Z,99.90
2018-11-14T03:51:55.545Z,99.90
2018-11-14T03:54:23.726Z,99.90
2018-11-14T03:56:51.893Z,99.90
2018-11-14T03:59:20.071Z,99.90
2018-11-14T04:01:48.232Z,99.90
2018-11-14T04:04:16.403Z,99.90
2018-11-14T04:06:44.557Z,99.90
2018-11-14T04:09:13.347Z,99.90
2018-11-14T04:11:41.978Z,99.90
2018-11-14T04:14:10.358Z,99.90
2018-11-14T04:16:38.540Z,99.90
2018-11-14T04:19:06.906Z,99.90
2018-11-14T04:21:35.090Z,99.90
2018-11-14T04:24:03.299Z,99.90
2018-11-14T04:26:31.442Z,99.90
2018-11-14T04:28:59.606Z,99.90
2018-11-14T04:31:27.761Z,99.90
2018-11-14T04:33:55.952Z,99.90
2018-11-14T04:36:24.134Z,99.90
2018-11-14T04:38:52.331Z,99.90
2018-11-14T04:41:20.482Z,99.90
2018-11-14T04:43:48.629Z,99.90
2018-11-14T04:46:16.762Z,99.90
2018-11-14T04:48:44.921Z,99.90
2018-11-14T04:51:13.077Z,99.90
2018-11-14T04:53:41.239Z,99.90
2018-11-14T04:56:09.390Z,99.90
2018-11-14T04:58:37.563Z,99.90
2018-11-14T05:01:05.768Z,99.90
2018-11-14T05:03:33.933Z,99.90
2018-11-14T05:06:02.099Z,99.90
2018-11-14T05:08:30.247Z,99.90
2018-11-14T05:10:58.404Z,99.90
2018-11-14T05:13:26.585Z,99.90
2018-11-14T05:15:54.731Z,99.90
2018-11-14T05:18:22.922Z,99.90
2018-11-14T05:20:51.087Z,99.90
2018-11-14T05:23:19.245Z,99.90
2018-11-14T05:25:47.415Z,99.90
2018-11-14T05:28:15.601Z,99.90
2018-11-14T05:30:43.770Z,99.90
2018-11-14T05:33:11.947Z,99.90
2018-11-14T05:35:40.097Z,99.90
2018-11-14T05:38:08.277Z,99.90
2018-11-14T05:40:36.474Z,99.90
2018-11-14T05:43:04.674Z,99.90
2018-11-14T05:45:32.925Z,99.90
2018-11-14T05:48:00.999Z,99.90
2018-11-14T05:50:29.166Z,99.90
2018-11-14T05:52:57.328Z,99.90
2018-11-14T05:55:25.556Z,99.90
2018-11-14T05:57:53.697Z,99.90
2018-11-14T06:00:24.311Z,99.90
2018-11-14T06:02:52.490Z,99.90
2018-11-14T06:05:20.631Z,99.90
2018-11-14T06:07:48.785Z,99.90
2018-11-14T06:10:16.973Z,99.90
2018-11-14T06:12:45.144Z,99.90
2018-11-14T06:15:15.309Z,99.90
2018-11-14T06:17:44.458Z,99.90
2018-11-14T06:20:14.208Z,99.90
2018-11-14T06:22:43.058Z,99.90
2018-11-14T06:25:30.499Z,99.90
2018-11-14T06:28:00.403Z,99.90
2018-11-14T06:30:28.786Z,99.90
2018-11-14T06:32:57.415Z,99.90
2018-11-14T06:35:25.686Z,99.90
2018-11-14T06:37:54.236Z,99.90
2018-11-14T06:40:22.506Z,99.90
2018-11-14T06:42:50.679Z,99.90
2018-11-14T06:45:20.807Z,99.90
2018-11-14T06:47:50.489Z,99.90
2018-11-14T06:50:18.686Z,99.90
2018-11-14T06:52:48.798Z,99.90
2018-11-14T06:55:17.749Z,99.90
2018-11-14T06:57:45.932Z,99.90
2018-11-14T07:00:16.406Z,99.90
2018-11-14T07:02:46.003Z,99.90
2018-11-14T07:05:15.888Z,99.90
2018-11-14T07:07:44.441Z,99.90
2018-11-14T07:10:14.617Z,99.90
2018-11-14T07:12:42.790Z,99.90
2018-11-14T07:15:14.457Z,99.90
2018-11-14T07:17:43.280Z,99.90
2018-11-14T07:20:15.383Z,99.90
2018-11-14T07:22:44.103Z,99.90
2018-11-14T07:25:12.505Z,99.90
2018-11-14T07:27:41.164Z,99.90
2018-11-14T07:30:12.511Z,99.90
2018-11-14T07:32:42.522Z,99.90
2018-11-14T07:35:12.033Z,99.90
2018-11-14T07:37:40.528Z,99.90
2018-11-14T07:40:11.433Z,99.90
2018-11-14T07:42:40.027Z,99.90
2018-11-14T07:45:10.683Z,99.90
2018-11-14T07:47:38.975Z,99.90
2018-11-14T07:50:10.549Z,99.90
2018-11-14T07:52:38.675Z,99.90
2018-11-14T07:55:08.780Z,99.90
2018-11-14T07:57:37.375Z,99.90
2018-11-14T08:00:09.381Z,99.90
2018-11-14T08:02:37.543Z,99.90
2018-11-14T08:05:06.426Z,99.90
2018-11-14T08:07:34.641Z,99.90
2018-11-14T08:10:02.770Z,99.90
2018-11-14T08:12:30.930Z,99.90
2018-11-14T08:14:59.066Z,99.90
2018-11-14T08:17:27.285Z,99.90
2018-11-14T08:19:55.430Z,99.90
2018-11-14T08:22:23.686Z,99.90
2018-11-14T08:24:51.903Z,99.90
2018-11-14T08:27:20.019Z,99.90
2018-11-14T08:29:48.159Z,99.90
2018-11-14T08:32:16.298Z,99.90
2018-11-14T08:34:44.515Z,99.90
2018-11-14T08:37:12.692Z,99.90
2018-11-14T08:39:40.833Z,99.90
2018-11-14T08:42:09.017Z,99.90
2018-11-14T08:44:37.224Z,99.90
2018-11-14T08:47:05.734Z,99.90
2018-11-14T08:49:33.874Z,99.90
2018-11-14T08:52:02.017Z,99.90
2018-11-14T08:54:30.162Z,99.90
2018-11-14T08:56:58.329Z,99.90
2018-11-14T08:59:26.710Z,99.90
2018-11-14T09:01:54.872Z,99.90
2018-11-14T09:04:23.028Z,99.90
2018-11-14T09:06:51.257Z,99.90
2018-11-14T09:09:19.417Z,99.90
2018-11-14T09:11:47.578Z,99.90
2018-11-14T09:14:15.781Z,99.90
2018-11-14T09:16:43.880Z,99.90
2018-11-14T09:19:12.090Z,99.90
2018-11-14T09:21:40.236Z,99.90
2018-11-14T09:24:08.370Z,99.90
2018-11-14T09:26:36.518Z,99.90
2018-11-14T09:29:04.670Z,99.90
2018-11-14T09:31:32.827Z,99.90
2018-11-14T09:34:00.967Z,99.90
2018-11-14T09:36:29.104Z,99.90
2018-11-14T09:38:57.261Z,99.90
2018-11-14T09:41:25.602Z,99.90
2018-11-14T09:43:53.689Z,99.90
2018-11-14T09:46:21.774Z,99.90
2018-11-14T09:48:49.954Z,99.90
2018-11-14T09:51:18.093Z,99.90
2018-11-14T09:53:46.241Z,99.90
2018-11-14T09:56:14.397Z,99.90
2018-11-14T09:58:42.601Z,99.90
2018-11-14T10:01:10.750Z,99.90
2018-11-14T10:03:38.970Z,99.90
2018-11-14T10:06:07.097Z,99.90
2018-11-14T10:08:35.305Z,99.90
2018-11-14T10:11:03.451Z,99.90
2018-11-14T10:13:31.630Z,99.90
2018-11-14T10:15:59.807Z,99.90
2018-11-14T10:18:27.978Z,99.90
2018-11-14T10:20:56.154Z,99.90
2018-11-14T10:23:24.326Z,99.90
2018-11-14T10:25:52.502Z,99.90
2018-11-14T10:28:20.662Z,99.90
2018-11-14T10:30:48.892Z,99.90
2018-11-14T10:33:17.014Z,99.90
2018-11-14T10:35:45.202Z,99.90
2018-11-14T10:38:13.471Z,99.90
2018-11-14T10:40:41.614Z,99.90
2018-11-14T10:43:09.855Z,99.90
2018-11-14T10:45:37.949Z,99.90
2018-11-14T10:48:06.097Z,99.90
2018-11-14T10:50:34.286Z,99.90
2018-11-14T10:53:02.459Z,99.90
2018-11-14T10:55:30.604Z,99.90
2018-11-14T10:57:58.761Z,99.90
2018-11-14T11:00:33.633Z,99.90
2018-11-14T11:03:08.021Z,99.90
2018-11-14T11:05:41.702Z,99.90
2018-11-14T11:08:15.488Z,99.90
2018-11-14T11:10:48.810Z,99.90
2018-11-14T11:13:22.201Z,99.90
2018-11-14T11:15:55.599Z,99.90
2018-11-14T11:18:28.723Z,99.90
2018-11-14T11:20:56.888Z,99.90
2018-11-14T11:23:25.165Z,99.90
2018-11-14T11:25:53.308Z,99.90
2018-11-14T11:28:21.565Z,99.90
2018-11-14T11:30:49.853Z,99.90
2018-11-14T11:33:17.883Z,99.90
2018-11-14T11:35:46.032Z,99.90
2018-11-14T11:38:14.256Z,99.90
2018-11-14T11:40:42.351Z,99.90
2018-11-14T11:43:10.506Z,99.90
2018-11-14T11:45:38.658Z,99.90
2018-11-14T11:48:06.794Z,99.90
2018-11-14T11:50:34.979Z,99.90
2018-11-14T11:53:03.142Z,99.90
2018-11-14T11:55:31.296Z,99.90
2018-11-14T11:57:59.450Z,99.90
2018-11-14T12:00:27.738Z,99.90
2018-11-14T12:02:55.813Z,99.90
2018-11-14T12:05:23.925Z,99.90
2018-11-14T12:07:52.070Z,99.90
2018-11-14T12:10:20.218Z,99.90
2018-11-14T12:12:48.400Z,99.90
2018-11-14T12:15:16.559Z,99.90
2018-11-14T12:17:44.729Z,99.90
2018-11-14T12:20:14.188Z,99.90
2018-11-14T12:22:42.845Z,99.90
2018-11-14T12:25:13.293Z,99.90
2018-11-14T12:27:41.550Z,99.90
2018-11-14T12:30:16.540Z,99.90
2018-11-14T12:32:44.678Z,99.90
2018-11-14T12:35:14.208Z,99.90
2018-11-14T12:37:42.752Z,99.90
2018-11-14T12:40:11.952Z,99.90
2018-11-14T12:42:40.271Z,99.90
2018-11-14T12:45:10.313Z,99.90
2018-11-14T12:47:38.507Z,99.90
2018-11-14T12:50:07.109Z,99.90
2018-11-14T12:52:35.420Z,99.90
2018-11-14T12:55:03.606Z,99.90
2018-11-14T12:57:32.233Z,99.90
2018-11-14T13:00:00.488Z,99.90
2018-11-14T13:02:28.606Z,99.90
2018-11-14T13:04:56.757Z,99.90
2018-11-14T13:07:24.917Z,99.90
2018-11-14T13:09:53.095Z,99.90
2018-11-14T13:12:21.266Z,99.90
2018-11-14T13:14:49.427Z,99.90
2018-11-14T13:17:17.625Z,99.90
2018-11-14T13:19:45.796Z,99.90
2018-11-14T13:22:13.950Z,99.90
2018-11-14T13:24:42.106Z,99.90
2018-11-14T13:27:10.318Z,99.90
2018-11-14T13:29:38.481Z,99.90
2018-11-14T13:32:06.655Z,99.90
2018-11-14T13:34:34.848Z,99.90
2018-11-14T13:37:03.058Z,99.90
2018-11-14T13:39:31.307Z,99.90
2018-11-14T13:41:59.512Z,99.90
2018-11-14T13:44:27.706Z,99.90
2018-11-14T13:46:55.930Z,99.90
2018-11-14T13:49:24.301Z,99.90
2018-11-14T13:51:52.291Z,99.90
2018-11-14T13:54:20.454Z,99.70
2018-11-14T13:56:48.634Z,99.10
2018-11-14T13:59:16.993Z,98.70
2018-11-14T14:01:45.204Z,98.10
2018-11-14T14:04:13.377Z,97.90
2018-11-14T14:06:41.567Z,97.00
2018-11-14T14:09:11.449Z,96.50
2018-11-14T14:11:39.633Z,95.60
2018-11-14T14:14:09.767Z,93.20
2018-11-14T14:16:37.987Z,90.20
2018-11-14T14:19:06.614Z,85.50
2018-11-14T14:21:34.818Z,81.10
2018-11-14T14:24:03.148Z,77.30
2018-11-14T14:26:31.350Z,74.80
2018-11-14T14:28:59.886Z,74.60
2018-11-14T14:31:28.578Z,75.10
2018-11-14T14:33:56.787Z,75.70
2018-11-14T14:36:24.958Z,76.00
2018-11-14T14:38:53.148Z,76.00
2018-11-14T14:41:21.351Z,75.70
2018-11-14T14:43:49.565Z,76.00
2018-11-14T14:46:17.750Z,76.40
2018-11-14T14:48:46.015Z,76.80
2018-11-14T14:51:14.248Z,77.90
2018-11-14T14:53:42.412Z,80.40
2018-11-14T14:56:10.638Z,84.30
2018-11-14T14:58:38.739Z,88.40
2018-11-14T15:01:06.992Z,91.80
2018-11-14T15:03:35.175Z,93.80
2018-11-14T15:06:03.358Z,96.00
2018-11-14T15:08:31.532Z,98.80
2018-11-14T15:10:59.718Z,99.90
2018-11-14T15:13:27.868Z,99.90
2018-11-14T15:15:56.063Z,99.90
2018-11-14T15:18:24.254Z,99.90
2018-11-14T15:20:52.442Z,99.90
2018-11-14T15:23:20.606Z,99.90
2018-11-14T15:25:48.807Z,99.90
2018-11-14T15:28:16.973Z,99.90
2018-11-14T15:30:45.140Z,99.90
2018-11-14T15:33:13.306Z,99.90
2018-11-14T15:35:41.499Z,99.90
2018-11-14T15:38:09.648Z,99.90
2018-11-14T15:40:37.819Z,99.90
2018-11-14T15:43:06.014Z,99.90
2018-11-14T15:45:34.255Z,99.90
2018-11-14T15:48:02.713Z,99.90
2018-11-14T15:50:31.127Z,99.90
2018-11-14T15:52:59.551Z,99.90
2018-11-14T15:55:27.863Z,99.90
2018-11-14T15:57:56.257Z,99.90
2018-11-14T16:00:25.704Z,99.90
2018-11-14T16:02:54.082Z,99.90
2018-11-14T16:05:23.360Z,99.90
2018-11-14T16:07:52.784Z,99.90
2018-11-14T16:10:22.197Z,99.90
2018-11-14T16:12:50.346Z,99.90
2018-11-14T16:15:37.350Z,99.90
2018-11-14T16:18:05.796Z,99.90
2018-11-14T16:20:33.885Z,99.90
2018-11-14T16:23:02.070Z,99.90
2018-11-14T16:25:30.237Z,99.90
2018-11-14T16:28:00.490Z,99.90
2018-11-14T16:30:29.889Z,99.90
2018-11-14T16:32:59.422Z,99.90
2018-11-14T16:35:27.787Z,99.90
2018-11-14T16:37:56.047Z,99.90
2018-11-14T16:40:25.486Z,99.90
2018-11-14T16:42:54.692Z,99.90
2018-11-14T16:45:22.855Z,99.90
2018-11-14T16:47:51.025Z,99.90
2018-11-14T16:50:20.125Z,99.90
2018-11-14T16:52:48.488Z,99.90
2018-11-14T16:55:17.582Z,99.90
2018-11-14T16:57:46.573Z,99.90
2018-11-14T17:00:16.933Z,99.90
2018-11-14T17:02:45.106Z,99.90
2018-11-14T17:05:13.639Z,99.90
2018-11-14T17:07:41.824Z,99.90
2018-11-14T17:10:12.550Z,99.90
2018-11-14T17:12:41.038Z,99.90
2018-11-14T17:15:10.743Z,99.90
2018-11-14T17:17:38.887Z,99.90
2018-11-14T17:20:07.492Z,99.90
2018-11-14T17:22:35.701Z,99.90
2018-11-14T17:25:03.844Z,99.90
2018-11-14T17:27:32.092Z,99.90
2018-11-14T17:30:00.310Z,99.90
2018-11-14T17:32:28.801Z,99.90
2018-11-14T17:34:57.043Z,99.90
2018-11-14T17:37:25.295Z,99.90
2018-11-14T17:39:53.513Z,99.90
2018-11-14T17:42:21.838Z,99.90
2018-11-14T17:44:49.967Z,99.90
2018-11-14T17:47:18.202Z,99.90
2018-11-14T17:49:46.392Z,99.90
2018-11-14T17:52:14.569Z,99.90
2018-11-14T17:54:42.746Z,99.90
2018-11-14T17:57:10.960Z,99.90
2018-11-14T17:59:39.127Z,99.90
2018-11-14T18:02:07.347Z,99.90
2018-11-14T18:04:35.565Z,99.90
2018-11-14T18:07:03.890Z,99.90
2018-11-14T18:09:32.123Z,99.90
2018-11-14T18:12:00.393Z,99.90
2018-11-14T18:14:28.580Z,99.90
2018-11-14T18:16:56.873Z,99.90
2018-11-14T18:19:25.043Z,99.90
2018-11-14T18:21:53.189Z,99.90
2018-11-14T18:24:21.429Z,99.90
2018-11-14T18:26:50.107Z,99.90
2018-11-14T18:29:18.387Z,99.90
2018-11-14T18:31:46.549Z,99.90
2018-11-14T18:34:14.792Z,99.90
2018-11-14T18:36:42.934Z,99.90
2018-11-14T18:39:13.071Z,99.90
2018-11-14T18:41:41.457Z,99.90
2018-11-14T18:44:09.638Z,99.90
2018-11-14T18:46:37.833Z,99.90
2018-11-14T18:49:05.998Z,99.90
2018-11-14T18:51:34.178Z,99.90
2018-11-14T18:56:09.950Z,99.90
2018-11-14T18:58:38.150Z,99.90
2018-11-14T19:01:06.758Z,99.90
2018-11-14T19:03:34.941Z,99.90
2018-11-14T19:06:03.178Z,99.90
2018-11-14T19:08:31.361Z,99.90
2018-11-14T19:10:59.566Z,99.90
2018-11-14T19:13:27.751Z,99.90
2018-11-14T19:15:55.938Z,99.90
2018-11-14T19:18:24.120Z,99.90
2018-11-14T19:20:52.327Z,99.90
2018-11-14T19:23:20.518Z,99.90
2018-11-14T19:25:48.718Z,99.90
2018-11-14T19:28:16.920Z,99.90
2018-11-14T19:30:45.225Z,99.90
2018-11-14T19:33:13.682Z,99.90
2018-11-14T19:35:41.903Z,99.90
2018-11-14T19:38:11.035Z,99.90
2018-11-14T19:40:39.201Z,99.90
2018-11-14T19:43:08.727Z,99.90
2018-11-14T19:45:37.779Z,99.90
2018-11-14T19:48:06.566Z,99.90
2018-11-14T19:50:34.791Z,99.90
2018-11-14T19:53:03.156Z,99.90
2018-11-14T19:55:31.834Z,99.90
2018-11-14T19:58:01.340Z,99.90
2018-11-14T20:00:31.748Z,99.90
2018-11-14T20:02:59.975Z,99.90
2018-11-14T20:05:28.210Z,99.90
2018-11-14T20:07:56.399Z,99.90
2018-11-14T20:10:26.040Z,99.90
2018-11-14T20:12:54.554Z,99.90
2018-11-14T20:15:25.018Z,99.90
2018-11-14T20:17:53.381Z,99.90
2018-11-14T20:20:22.883Z,99.90
2018-11-14T20:22:51.082Z,99.90
2018-11-14T20:25:19.654Z,99.90
2018-11-14T20:27:48.122Z,99.90
2018-11-14T20:30:20.359Z,99.90
2018-11-14T20:32:49.055Z,99.90
2018-11-14T20:35:18.472Z,99.90
2018-11-14T20:37:46.641Z,99.90
2018-11-14T20:40:16.040Z,99.90
2018-11-14T20:42:44.616Z,99.90
2018-11-14T20:45:16.482Z,99.90
2018-11-14T20:47:44.665Z,99.90
2018-11-14T20:50:17.068Z,99.90
2018-11-14T20:52:46.046Z,99.90
2018-11-14T20:55:14.322Z,99.90
2018-11-14T20:57:43.089Z,99.90
2018-11-14T21:00:14.950Z,99.90
2018-11-14T21:02:43.428Z,99.90
2018-11-14T21:05:12.322Z,99.90
2018-11-14T21:07:41.007Z,99.90
2018-11-14T21:10:11.048Z,99.90
2018-11-14T21:12:39.802Z,99.90
2018-11-14T21:15:09.539Z,99.90
2018-11-14T21:17:37.709Z,99.90
2018-11-14T21:20:07.313Z,99.90
2018-11-14T21:22:35.465Z,99.90
2018-11-14T21:25:03.975Z,99.90
2018-11-14T21:27:32.122Z,99.90
2018-11-14T21:30:00.934Z,99.90
2018-11-14T21:32:29.168Z,99.90
2018-11-14T21:34:57.463Z,99.90
2018-11-14T21:37:26.689Z,99.90
2018-11-14T21:39:54.967Z,99.90
2018-11-14T21:42:23.339Z,99.90
2018-11-14T21:44:51.695Z,99.90
2018-11-14T21:47:24.116Z,99.90
2018-11-14T21:49:52.325Z,99.90
2018-11-14T21:52:20.578Z,99.90
2018-11-14T21:54:48.774Z,99.90
2018-11-14T21:57:17.016Z,99.90
2018-11-14T21:59:45.311Z,99.90
2018-11-14T22:02:13.465Z,99.90
2018-11-14T22:04:41.662Z,99.90
2018-11-14T22:07:10.049Z,99.90
2018-11-14T22:09:38.255Z,99.90
2018-11-14T22:12:06.434Z,99.90
2018-11-14T22:14:34.634Z,99.90
2018-11-14T22:17:02.814Z,99.90
2018-11-14T22:19:31.080Z,99.90
2018-11-14T22:21:59.269Z,99.90
2018-11-14T22:24:29.177Z,99.90
2018-11-14T22:26:57.370Z,99.90
2018-11-14T22:29:25.598Z,99.90
2018-11-14T22:31:54.003Z,99.90
2018-11-14T22:34:22.230Z,99.90
2018-11-14T22:36:51.395Z,99.90
2018-11-14T22:39:19.544Z,99.90
2018-11-14T22:41:47.774Z,99.90
2018-11-14T22:44:15.938Z,99.90
2018-11-14T22:46:44.102Z,99.90
2018-11-14T22:49:12.302Z,99.90
2018-11-14T22:51:40.516Z,99.90
2018-11-14T22:54:08.736Z,99.90
2018-11-14T22:56:36.894Z,99.90
2018-11-14T22:59:05.490Z,99.90
2018-11-14T23:01:33.653Z,99.90
2018-11-14T23:04:01.855Z,99.90
2018-11-14T23:06:30.021Z,99.90
2018-11-14T23:08:58.165Z,99.90
2018-11-14T23:11:26.398Z,99.90
2018-11-14T23:14:01.009Z,99.90
2018-11-14T23:16:29.174Z,99.90
2018-11-14T23:18:57.386Z,99.90
2018-11-14T23:21:25.535Z,99.90
2018-11-14T23:23:53.688Z,99.90
2018-11-14T23:26:21.895Z,99.90
2018-11-14T23:28:50.046Z,99.90
2018-11-14T23:31:18.232Z,99.90
2018-11-14T23:33:46.454Z,99.90
2018-11-14T23:36:14.675Z,99.90
2018-11-14T23:38:42.808Z,99.90
2018-11-14T23:41:10.963Z,99.90
2018-11-14T23:43:39.118Z,99.90
2018-11-14T23:46:07.257Z,99.90
2018-11-14T23:48:35.400Z,99.90
2018-11-14T23:51:03.605Z,99.90
2018-11-14T23:53:31.764Z,99.90
2018-11-14T23:55:59.930Z,99.90
2018-11-14T23:58:28.154Z,99.90
